KLKU

Details ICAO KLKU
Name LOUISA CO FREEMAN FLD
Region United States
Timezone America/New_York (UTC-4.0)
Plans Departing 4
Arriving 2
Stats Elevation 493 ft / 150 m (AMSL)
Location 38.009825° -77.970128°
Runways 1
Magnetic Variation 10.100° W
Sunrise 2018-05-21 09:58:18 UTC / 2018-05-21 05:58:18 Local
Sunset 2018-05-22 00:21:32 UTC / 2018-05-21 20:21:32 Local
Advertisement - Login to hide

Runways

ID Width Length Bearing (true) Bearing (mag) Surface Threshold Offset Overrun Length
09 100 ft / 30 m 4,292 ft / 1,308 m 82.29° 92.39° Asphalt 0 ft / 0 m 0 ft / 0 m
27 100 ft / 30 m 4,292 ft / 1,308 m 262.29° 272.39° Asphalt 0 ft / 0 m 0 ft / 0 m

Map

Weather


0- 5 10 15 20 25 30 35+ Temperature / ° C

Clouds and Precipitation
Forecast for 2018-05-22 00:00 UTC. Updated 5 hours ago

Ground ~20,000 ft ~40,000 ft Winds

METAR

KLKU 220415Z AUTO 14004KT 10SM OVC012 20/16 A3019 RMK AO2 T01950163

TAF

Not found

Frequencies

Recorded 119.47 MHz AWOS 3
Approach 132.85 MHz POTOMAC APP/DEP
Unicom 122.72 MHz CTAF/UNICOM
Warning: Do not use this data for real-world aviation or navigation. No guarantee of current accuracy is given.